Aeroporto :
LOGIN :

Iscrizione | Disclaimer

   EN    FR    IT 

 










Sommario :    VFR   VFR Marginale   IFR   IFR Intensivo   IFR Molto Intensivo
Visibilità : 
Base nubi : 
>= 8 km
>= 3000ft
5 / 8 km
1000 / 3000 ft
1500m / 5 km
500 / 1000 ft
800 / 1500m
200 / 500 ft
< 800m
< 200 ft
Simboli :   Temporali  Nebbia  Neve Forte  Precipitazioni Forti  Vento > 20 kt
SIGMETs :   Varie  Temporali  Ghiacco  Turbolenza  Onda orograficha  Ceneri Vulcaniche






- Altitudine del aeroporto : 157 ft
- Codice IATA : SXF


EDDB - Berlin Schönefeld

ULTIMO METAR :
  • 212250Z 25008KT 9999 BKN014 01/M00 Q1035 NOSIG

METARs OBSOLETI :
  • 212220Z 25009KT 9999 BKN014 01/M01 Q1035 NOSIG
  • 212150Z 25008KT 9999 BKN016 01/M01 Q1035 BECMG BKN013
  • 212120Z 26007KT 9999 BKN018 M00/M02 Q1035 BECMG BKN013
  • 212050Z 25008KT 9999 BKN020 M01/M02 Q1035 BECMG BKN013
  • 212020Z 25008KT CAVOK M01/M02 Q1036 NOSIG

TAF TAF EDDB
Valido dal 21 a 18 ore il 22 a 18 ore UTC


211700Z 2118/2218 27010KT CAVOK
BECMG 2120/2123 BKN012
TEMPO 2121/2205 BKN009
BECMG 2205/2208 BKN007
TEMPO 2205/2212 3500 -DZ BKN004
BECMG 2212/2215 BKN012



MetMap, La meteo Aeronautica in un colpo d'occhio ! - Copyright ORBIFLY Dicembre 2007 - Disclaimer

ORBIFLY MET'MAP TEAM :

Programmazione e sviluppo : Alexandra Zaïnal
Concezione : Baudouin d'Aumeries
Aiuto per la programmazione : Marc-Olivier Méhu
Supporto tecnico e logistico : Manuel Goepfert
Aiuto per la traduzione : Arnaldo La Scala

Contatto : metmap@orbifly.com




FONTI E CREDITI :

   NOAA